Time;durP1;ratioP1;P1;durP2;ratioP2;P2;SDS_P1;SDS_P2;PMS_P1;PMS_P2;Temp;Humidity;BMP_temperature;BMP_pressure;BME280_temperature;BME280_humidity;BME280_pressure;Samples;Min_cycle;Max_cycle;Signal;HPM_P1;HPM_P2
2023/07/19 00:00:34;;;;;;;7.47;3.45;;;;;;;18.46;64.47;101524.38;4977372;28;97263;-27
2023/07/19 00:03:00;;;;;;;8.30;3.33;;;;;;;18.49;64.64;101512.25;4975597;28;96842;-27
2023/07/19 00:05:25;;;;;;;8.85;3.08;;;;;;;18.49;64.51;101523.22;4977283;28;96847;-28
2023/07/19 00:07:51;;;;;;;6.43;2.55;;;;;;;18.37;65.06;101511.41;4977132;28;97935;-27
2023/07/19 00:10:16;;;;;;;5.30;2.15;;;;;;;18.40;64.95;101515.78;4976886;28;97435;-27
2023/07/19 00:12:41;;;;;;;4.35;1.70;;;;;;;18.42;65.10;101522.91;4977015;28;96477;-27
2023/07/19 00:15:07;;;;;;;4.50;1.42;;;;;;;18.40;64.87;101515.78;4977592;28;96741;-27
2023/07/19 00:17:33;;;;;;;4.03;1.60;;;;;;;18.45;64.97;101517.16;4976853;28;97609;-27
2023/07/19 00:19:58;;;;;;;3.67;1.48;;;;;;;18.44;65.34;101509.03;4976749;28;97349;-27
2023/07/19 00:22:23;;;;;;;5.93;1.30;;;;;;;18.43;65.05;101507.31;4976700;28;96627;-27
2023/07/19 00:24:49;;;;;;;2.35;1.08;;;;;;;18.46;65.42;101507.91;4976796;28;96841;-26
2023/07/19 00:27:14;;;;;;;2.78;1.35;;;;;;;18.45;65.52;101499.81;4976570;28;99851;-26
2023/07/19 00:29:39;;;;;;;2.55;1.00;;;;;;;18.44;65.12;101487.97;4976203;28;97627;-27
2023/07/19 00:32:05;;;;;;;3.88;1.38;;;;;;;18.45;64.67;101494.34;4976980;28;96524;-26
2023/07/19 00:34:31;;;;;;;0.90;0.75;;;;;;;18.43;65.31;101488.09;4976496;28;96884;-26
2023/07/19 00:36:56;;;;;;;2.47;1.20;;;;;;;18.48;65.71;101490.47;4976290;28;98038;-28
2023/07/19 00:39:22;;;;;;;2.28;0.93;;;;;;;18.42;65.42;101484.50;4976622;28;99306;-27
2023/07/19 00:41:47;;;;;;;1.35;0.73;;;;;;;18.45;65.93;101492.47;4976753;28;96639;-27
2023/07/19 00:44:12;;;;;;;1.77;1.00;;;;;;;18.42;65.56;101486.34;4976685;28;96797;-27
2023/07/19 00:46:39;;;;;;;3.95;1.02;;;;;;;18.43;66.20;101485.38;4976010;28;97993;-29
2023/07/19 00:49:05;;;;;;;1.92;0.77;;;;;;;18.43;66.32;101491.72;4974092;28;101140;-27
2023/07/19 00:51:31;;;;;;;2.53;0.93;;;;;;;18.39;66.65;101492.09;4975159;28;96664;-27
2023/07/19 00:53:57;;;;;;;2.63;1.35;;;;;;;18.38;66.01;101480.25;4975026;28;96767;-27
2023/07/19 00:56:23;;;;;;;1.38;0.73;;;;;;;18.41;65.90;101482.75;4974684;28;101275;-28
2023/07/19 00:58:50;;;;;;;0.95;0.80;;;;;;;18.39;66.36;101486.63;4974650;28;101527;-27
2023/07/19 01:01:15;;;;;;;1.92;0.82;;;;;;;18.42;65.98;101480.84;4974881;28;96609;-28
2023/07/19 01:03:41;;;;;;;1.95;0.90;;;;;;;18.44;65.88;101482.47;4976585;28;96777;-27
2023/07/19 01:06:06;;;;;;;4.95;0.90;;;;;;;18.40;65.89;101481.00;4976110;28;98087;-26
2023/07/19 01:08:33;;;;;;;1.98;0.80;;;;;;;18.41;65.63;101476.38;4975975;28;97319;-27
2023/07/19 01:10:59;;;;;;;4.00;1.10;;;;;;;18.42;65.51;101469.88;4974453;28;96715;-27
2023/07/19 01:13:25;;;;;;;1.80;0.90;;;;;;;18.43;65.66;101475.25;4974896;28;96823;-26
2023/07/19 01:15:50;;;;;;;1.30;0.68;;;;;;;18.49;65.78;101479.34;4975593;28;98725;-27
2023/07/19 01:18:18;;;;;;;1.65;0.82;;;;;;;18.50;65.65;101472.00;4975739;28;97446;-26
2023/07/19 01:20:43;;;;;;;1.02;0.68;;;;;;;18.48;65.91;101471.25;4974780;28;96534;-27
2023/07/19 01:23:08;;;;;;;2.25;0.75;;;;;;;18.50;66.22;101474.75;4976075;28;96776;-27
2023/07/19 01:25:34;;;;;;;4.97;1.20;;;;;;;18.48;66.75;101472.13;4975757;28;97860;-26
2023/07/19 01:28:00;;;;;;;2.92;0.82;;;;;;;18.47;66.29;101464.88;4976094;28;97845;-29
2023/07/19 01:30:25;;;;;;;1.80;1.02;;;;;;;18.44;66.25;101463.25;4975696;28;96502;-26
2023/07/19 01:32:51;;;;;;;2.05;0.90;;;;;;;18.45;66.49;101466.91;4975925;28;96801;-27
2023/07/19 01:35:17;;;;;;;1.52;0.85;;;;;;;18.47;66.29;101464.88;4975099;28;97399;-27
2023/07/19 01:37:42;;;;;;;2.40;0.95;;;;;;;18.42;66.08;101456.16;4975671;28;97820;-27
2023/07/19 01:40:11;;;;;;;2.22;0.93;;;;;;;18.43;66.12;101468.91;4974785;28;96699;-27
2023/07/19 01:42:37;;;;;;;2.58;0.80;;;;;;;18.40;66.47;101469.13;4974287;28;96804;-26
2023/07/19 01:45:03;;;;;;;2.88;0.85;;;;;;;18.39;66.56;101464.66;4975260;28;97951;-27
2023/07/19 01:47:28;;;;;;;1.38;0.80;;;;;;;18.41;66.70;101466.28;4973953;28;101060;-27
2023/07/19 01:49:54;;;;;;;2.03;0.80;;;;;;;18.40;66.74;101460.91;4974901;28;96703;-26
2023/07/19 01:52:19;;;;;;;2.72;0.70;;;;;;;18.37;66.49;101453.81;4976410;28;96883;-26
2023/07/19 01:54:45;;;;;;;0.75;0.50;;;;;;;18.41;66.24;101451.69;4975385;28;98000;-27
2023/07/19 01:57:11;;;;;;;2.50;0.93;;;;;;;18.41;66.36;101460.78;4975260;28;97360;-26
2023/07/19 01:59:37;;;;;;;2.38;0.90;;;;;;;18.41;66.85;101468.16;4973527;28;96585;-27
2023/07/19 02:02:03;;;;;;;0.77;0.63;;;;;;;18.42;67.37;101479.00;4974168;28;96926;-28
2023/07/19 02:04:29;;;;;;;4.28;1.58;;;;;;;18.37;67.28;101469.41;4975179;28;98149;-28
2023/07/19 02:06:55;;;;;;;3.28;1.33;;;;;;;18.29;67.58;101450.88;4973762;28;100796;-27
2023/07/19 02:09:20;;;;;;;3.60;1.33;;;;;;;18.32;67.19;101455.22;4975411;28;96470;-26
2023/07/19 02:11:46;;;;;;;2.08;1.25;;;;;;;18.34;67.14;101458.72;4975591;28;96779;-27
2023/07/19 02:14:11;;;;;;;2.78;1.60;;;;;;;18.33;67.10;101459.69;4974587;28;98940;-27
2023/07/19 02:16:37;;;;;;;2.58;1.00;;;;;;;18.35;67.26;101465.91;4975290;28;99561;-26
2023/07/19 02:19:05;;;;;;;2.33;1.10;;;;;;;18.35;67.04;101465.91;4975348;28;96573;-27
2023/07/19 02:21:30;;;;;;;1.63;1.05;;;;;;;18.31;67.68;101453.50;4973773;28;96965;-27
2023/07/19 02:23:57;;;;;;;3.03;0.82;;;;;;;18.28;66.92;101443.63;4974514;28;97515;-27
2023/07/19 02:26:22;;;;;;;2.33;1.05;;;;;;;18.30;66.87;101449.00;4974788;28;98024;-27
2023/07/19 02:28:47;;;;;;;2.10;1.30;;;;;;;18.34;66.80;101459.56;4975399;28;96595;-27
2023/07/19 02:31:13;;;;;;;1.67;1.00;;;;;;;18.31;67.44;101440.63;4975311;28;96777;-26
2023/07/19 02:33:38;;;;;;;2.85;1.00;;;;;;;18.32;67.21;101447.84;4974595;28;97896;-28
2023/07/19 02:36:04;;;;;;;1.55;0.93;;;;;;;18.33;67.91;101459.69;4974413;28;99142;-28
2023/07/19 02:38:29;;;;;;;2.88;1.20;;;;;;;18.28;67.50;101450.97;4975307;28;96516;-27
2023/07/19 02:40:59;;;;;;;4.78;1.30;;;;;;;18.25;67.25;101439.28;4975585;28;96783;-27
2023/07/19 02:43:25;;;;;;;4.40;0.98;;;;;;;18.25;66.99;101439.28;4973013;28;101570;-27
2023/07/19 02:45:54;;;;;;;4.00;0.95;;;;;;;18.31;67.43;101453.50;4973246;28;101079;-26
2023/07/19 02:48:20;;;;;;;4.03;0.95;;;;;;;18.30;67.80;101452.59;4972445;28;96792;-27
2023/07/19 02:50:47;;;;;;;1.60;0.82;;;;;;;18.30;68.31;101451.72;4972278;28;96918;-27
2023/07/19 02:53:13;;;;;;;1.45;0.85;;;;;;;18.24;68.80;101439.41;4978311;28;100967;-27
2023/07/19 02:55:39;;;;;;;1.05;0.75;;;;;;;18.23;68.77;101432.16;4979999;28;96599;-26
2023/07/19 02:58:04;;;;;;;1.83;1.00;;;;;;;18.28;68.85;101445.50;4978563;28;96707;-27
2023/07/19 03:00:30;;;;;;;3.40;0.73;;;;;;;18.26;69.57;101448.38;4980306;28;96547;-27
2023/07/19 03:02:55;;;;;;;4.75;1.10;;;;;;;18.23;69.64;101446.78;4979843;28;98085;-27
2023/07/19 03:05:22;;;;;;;2.35;0.88;;;;;;;18.21;69.77;101443.28;4980169;28;97783;-27
2023/07/19 03:07:47;;;;;;;2.28;0.80;;;;;;;18.22;70.52;101441.41;4978510;28;96671;-27
2023/07/19 03:10:12;;;;;;;1.92;0.73;;;;;;;18.19;70.15;101436.19;4980039;28;96763;-26
2023/07/19 03:12:38;;;;;;;1.80;1.00;;;;;;;18.20;69.63;101429.69;4979063;28;97948;-27
2023/07/19 03:15:04;;;;;;;2.45;1.15;;;;;;;18.21;70.06;101437.81;4979382;28;99442;-26
2023/07/19 03:17:30;;;;;;;2.08;0.95;;;;;;;18.18;71.16;101439.94;4979863;28;96677;-27
2023/07/19 03:19:55;;;;;;;3.05;0.93;;;;;;;18.19;71.02;101444.44;4978466;28;96864;-27
2023/07/19 03:22:20;;;;;;;2.13;0.80;;;;;;;18.18;71.09;101446.28;4979717;28;97922;-27
2023/07/19 03:24:46;;;;;;;2.50;1.23;;;;;;;18.18;71.64;101439.94;4979210;28;99210;-27
2023/07/19 03:27:11;;;;;;;2.63;0.90;;;;;;;18.12;71.82;101433.09;4979809;28;96774;-26
2023/07/19 03:29:36;;;;;;;4.07;1.05;;;;;;;18.04;72.15;101421.88;4980336;28;96948;-28
2023/07/19 03:32:02;;;;;;;2.55;1.08;;;;;;;18.11;71.46;101438.69;4979578;28;97246;-26
2023/07/19 03:34:28;;;;;;;2.28;1.08;;;;;;;18.04;71.77;101432.84;4978016;28;100686;-27
2023/07/19 03:36:53;;;;;;;1.73;0.80;;;;;;;18.09;71.95;101437.94;4979292;28;96776;-27
2023/07/19 03:39:18;;;;;;;2.17;1.02;;;;;;;18.05;71.74;101437.34;4979731;28;96703;-27
2023/07/19 03:41:44;;;;;;;1.23;0.70;;;;;;;18.07;72.29;101432.63;4979164;28;98838;-26
2023/07/19 03:44:09;;;;;;;2.35;0.75;;;;;;;18.05;71.74;101429.13;4979003;28;98816;-27
2023/07/19 03:46:35;;;;;;;4.63;1.23;;;;;;;18.08;72.10;101436.22;4979637;28;96500;-27
2023/07/19 03:49:00;;;;;;;1.15;0.80;;;;;;;18.06;71.39;101443.69;4937934;28;1178660;-27
2023/07/19 03:51:25;;;;;;;4.13;0.93;;;;;;;18.04;71.16;101432.84;4980501;28;97863;-27
2023/07/19 03:53:51;;;;;;;2.45;0.90;;;;;;;18.05;71.76;101429.13;4980630;28;99171;-27
2023/07/19 03:56:16;;;;;;;0.75;0.40;;;;;;;18.09;71.67;101432.47;4980515;28;96464;-27
2023/07/19 03:58:45;;;;;;;2.90;0.95;;;;;;;18.07;72.24;101437.19;4980723;28;96820;-27
2023/07/19 04:01:10;;;;;;;1.13;0.70;;;;;;;18.04;73.66;101433.75;4979751;28;96749;-27
2023/07/19 04:03:35;;;;;;;2.00;0.88;;;;;;;18.04;72.75;101436.50;4977644;28;97753;-26
2023/07/19 04:06:01;;;;;;;2.42;1.20;;;;;;;18.03;72.48;101434.72;4977511;28;96542;-26
2023/07/19 04:08:27;;;;;;;1.08;0.70;;;;;;;18.04;71.97;101432.84;4977491;28;96758;-27
2023/07/19 04:10:52;;;;;;;1.60;0.88;;;;;;;17.98;71.57;101428.75;4975386;28;100899;-27
2023/07/19 04:13:17;;;;;;;1.50;0.80;;;;;;;18.02;72.55;101432.13;4976952;28;97491;-26
2023/07/19 04:15:43;;;;;;;2.65;1.35;;;;;;;18.02;72.73;101438.47;4977354;28;96692;-27
2023/07/19 04:18:09;;;;;;;3.50;0.90;;;;;;;17.98;72.85;101426.03;4977598;28;96883;-27
2023/07/19 04:20:36;;;;;;;2.13;0.95;;;;;;;17.98;72.94;101433.38;4976962;28;97549;-27
2023/07/19 04:23:03;;;;;;;3.55;1.05;;;;;;;18.00;72.95;101436.88;4975247;28;101103;-26
2023/07/19 04:25:28;;;;;;;2.35;1.00;;;;;;;18.00;73.45;101429.50;4975004;28;96739;-26
2023/07/19 04:27:54;;;;;;;1.63;0.77;;;;;;;17.97;73.10;101424.28;4976978;28;97098;-27
2023/07/19 04:30:19;;;;;;;1.75;0.88;;;;;;;17.99;72.37;101426.88;4976662;28;97994;-27
2023/07/19 04:32:45;;;;;;;1.08;0.82;;;;;;;18.01;73.31;101428.50;4976638;28;97816;-26
2023/07/19 04:35:11;;;;;;;2.05;1.10;;;;;;;18.02;73.10;101429.41;4976629;28;96833;-26
2023/07/19 04:37:38;;;;;;;2.45;0.85;;;;;;;18.06;72.98;101438.22;4976841;28;96839;-28
2023/07/19 04:40:06;;;;;;;2.10;1.15;;;;;;;18.06;73.09;101433.59;4976111;28;100089;-28
2023/07/19 04:42:31;;;;;;;4.18;1.02;;;;;;;18.05;73.25;101423.66;4975347;28;101107;-27
2023/07/19 04:44:57;;;;;;;5.55;1.20;;;;;;;18.10;73.18;101442.44;4975216;28;96554;-27
2023/07/19 04:47:22;;;;;;;3.45;1.23;;;;;;;18.09;72.47;101429.72;4976828;28;96802;-27
2023/07/19 04:49:47;;;;;;;2.30;0.95;;;;;;;18.12;72.91;101435.84;4975318;28;98019;-26
2023/07/19 04:52:13;;;;;;;3.15;1.00;;;;;;;18.12;72.77;101438.59;4976395;28;97786;-27
2023/07/19 04:54:38;;;;;;;5.28;1.10;;;;;;;18.13;72.40;101439.44;4976461;28;96620;-27
2023/07/19 04:57:05;;;;;;;3.25;0.90;;;;;;;18.16;72.44;101437.34;4976628;28;96762;-28
2023/07/19 04:59:30;;;;;;;2.63;1.10;;;;;;;18.17;72.11;101441.81;4974685;28;100982;-27
2023/07/19 05:01:56;;;;;;;3.20;1.13;;;;;;;18.20;72.89;101440.66;4976332;28;97249;-26
2023/07/19 05:04:21;;;;;;;2.40;0.90;;;;;;;18.20;74.11;101443.41;4976475;28;96538;-26
2023/07/19 05:06:47;;;;;;;4.85;1.35;;;;;;;18.18;72.88;101440.78;4976555;28;96839;-27
2023/07/19 05:09:12;;;;;;;2.75;1.10;;;;;;;18.22;73.22;101441.41;4975980;28;97920;-26
2023/07/19 05:11:39;;;;;;;1.55;0.95;;;;;;;18.27;73.07;101449.25;4976128;28;97784;-27
2023/07/19 05:14:04;;;;;;;1.23;0.90;;;;;;;18.24;73.19;101443.03;4975659;28;96628;-28
2023/07/19 05:16:30;;;;;;;5.38;1.30;;;;;;;18.29;73.27;101439.91;4976072;28;96820;-27
2023/07/19 05:18:56;;;;;;;4.95;0.98;;;;;;;18.30;73.10;101440.75;4975973;28;97952;-28
2023/07/19 05:21:22;;;;;;;2.45;0.98;;;;;;;18.30;73.13;101438.00;4975762;28;97286;-27
2023/07/19 05:23:48;;;;;;;3.78;1.30;;;;;;;18.30;72.75;101438.88;4974391;28;96590;-28
2023/07/19 05:26:14;;;;;;;2.80;1.17;;;;;;;18.33;73.33;101427.66;4975853;28;96809;-27
2023/07/19 05:28:39;;;;;;;4.00;1.52;;;;;;;18.36;73.45;101432.88;4975866;28;97569;-27
2023/07/19 05:31:07;;;;;;;2.78;1.30;;;;;;;18.33;73.34;101429.50;4976053;28;97744;-27
2023/07/19 05:33:34;;;;;;;2.55;1.58;;;;;;;18.37;73.75;101441.97;4975739;28;96600;-28
2023/07/19 05:36:00;;;;;;;2.70;1.35;;;;;;;18.33;73.87;101435.00;4974319;28;96988;-27
2023/07/19 05:38:26;;;;;;;3.28;1.05;;;;;;;18.34;73.28;101426.66;4973555;28;98926;-28
2023/07/19 05:40:51;;;;;;;2.08;1.00;;;;;;;18.42;73.22;101435.13;4974167;28;100766;-27
2023/07/19 05:43:17;;;;;;;2.28;1.42;;;;;;;18.47;73.97;101437.44;4975890;28;96509;-27
2023/07/19 05:45:42;;;;;;;3.65;1.35;;;;;;;18.60;72.82;101449.13;4975612;28;96891;-27
2023/07/19 05:48:07;;;;;;;4.78;1.38;;;;;;;18.62;72.81;101444.38;4975213;28;97878;-27
2023/07/19 05:50:33;;;;;;;4.80;1.30;;;;;;;18.60;73.81;101446.38;4975177;28;97862;-26
2023/07/19 05:52:58;;;;;;;3.40;1.27;;;;;;;18.58;73.57;101442.88;4975625;28;96501;-26
2023/07/19 05:55:24;;;;;;;2.08;1.13;;;;;;;18.71;72.78;101444.56;4976121;28;96865;-28
2023/07/19 05:57:50;;;;;;;2.08;1.05;;;;;;;18.81;72.07;101437.31;4975063;28;99355;-27
2023/07/19 06:00:24;;;;;;;3.05;1.30;;;;;;;18.91;71.91;101440.13;4973929;28;100564;-27
2023/07/19 06:02:52;;;;;;;2.13;1.13;;;;;;;19.03;72.06;101428.94;4973756;28;96897;-28
2023/07/19 06:05:18;;;;;;;2.13;1.42;;;;;;;19.10;72.51;101434.75;4975576;28;96781;-26
2023/07/19 06:07:45;;;;;;;2.25;1.30;;;;;;;19.04;72.80;101427.94;4973814;28;101014;-26
2023/07/19 06:10:10;;;;;;;1.70;0.93;;;;;;;18.97;72.73;101429.47;4973577;28;101451;-27
2023/07/19 06:12:36;;;;;;;3.95;1.58;;;;;;;19.06;72.01;101436.03;4975556;28;96749;-27
2023/07/19 06:15:01;;;;;;;8.10;2.03;;;;;;;19.18;72.52;101425.84;4975731;28;96734;-27
2023/07/19 06:17:26;;;;;;;3.05;1.38;;;;;;;19.19;72.01;101444.06;4975057;28;97843;-26
2023/07/19 06:19:52;;;;;;;2.65;1.13;;;;;;;19.17;72.09;101432.34;4975524;28;97788;-27
2023/07/19 06:22:17;;;;;;;5.55;0.98;;;;;;;19.21;72.70;101437.44;4974880;28;96615;-26
2023/07/19 06:24:42;;;;;;;3.85;1.27;;;;;;;19.24;72.39;101436.28;4974976;28;96927;-27
2023/07/19 06:27:08;;;;;;;2.08;1.20;;;;;;;19.28;72.17;101427.66;4973875;28;100752;-26
2023/07/19 06:29:33;;;;;;;3.00;1.13;;;;;;;19.44;72.13;101426.25;4974837;28;98273;-28
2023/07/19 06:31:58;;;;;;;2.78;1.20;;;;;;;19.52;71.69;101434.66;4975587;28;96641;-29
2023/07/19 06:34:24;;;;;;;5.95;1.38;;;;;;;19.72;71.39;101433.78;4973750;28;96924;-26
2023/07/19 06:36:49;;;;;;;3.42;1.30;;;;;;;19.74;71.29;101433.66;4974344;28;99391;-27
2023/07/19 06:39:15;;;;;;;3.88;1.25;;;;;;;19.73;72.69;101438.28;4973338;28;101154;-27
2023/07/19 06:41:40;;;;;;;2.85;1.42;;;;;;;19.66;71.42;101439.81;4974982;28;96455;-28
2023/07/19 06:44:06;;;;;;;4.65;1.42;;;;;;;19.61;71.73;101433.84;4975258;28;96826;-26
2023/07/19 06:46:31;;;;;;;4.50;1.58;;;;;;;19.57;72.08;101434.25;4974757;28;97956;-26
2023/07/19 06:48:57;;;;;;;4.78;1.27;;;;;;;19.59;71.69;101438.59;4973788;28;96945;-27
2023/07/19 06:51:22;;;;;;;2.70;1.35;;;;;;;19.82;72.09;101436.56;4974169;28;96951;-28
2023/07/19 06:53:47;;;;;;;4.38;1.45;;;;;;;19.95;71.02;101436.31;4974970;28;96738;-27
2023/07/19 06:56:13;;;;;;;2.35;1.17;;;;;;;19.96;71.12;101432.53;4974765;28;98057;-27
2023/07/19 06:58:38;;;;;;;3.92;1.30;;;;;;;20.01;71.17;101440.38;4975013;28;97265;-27
2023/07/19 07:01:03;;;;;;;1.85;1.15;;;;;;;19.98;71.26;101432.41;4974595;28;96568;-27
2023/07/19 07:03:29;;;;;;;5.65;1.13;;;;;;;20.01;71.48;101441.22;4973685;28;96949;-27
2023/07/19 07:05:54;;;;;;;5.05;1.02;;;;;;;20.15;71.02;101428.97;4974305;28;99722;-27
2023/07/19 07:08:20;;;;;;;2.97;1.33;;;;;;;20.31;70.74;101439.41;4973343;28;101517;-27
2023/07/19 07:10:45;;;;;;;2.80;1.17;;;;;;;20.27;70.53;101441.56;4974902;28;96547;-27
2023/07/19 07:13:11;;;;;;;2.65;1.30;;;;;;;20.21;70.68;101436.63;4974864;28;96800;-27
2023/07/19 07:15:36;;;;;;;2.83;1.17;;;;;;;20.04;70.58;101429.94;4973742;28;99354;-26
2023/07/19 07:18:02;;;;;;;3.17;1.30;;;;;;;20.09;71.02;101435.91;4974320;28;97871;-27
2023/07/19 07:20:27;;;;;;;2.47;1.20;;;;;;;20.25;70.88;101450.97;4974758;28;96541;-27
2023/07/19 07:22:55;;;;;;;4.32;1.52;;;;;;;20.26;69.97;101445.34;4974585;28;96840;-27
2023/07/19 07:25:20;;;;;;;2.15;1.10;;;;;;;20.22;69.77;101449.38;4972797;28;101204;-27
2023/07/19 07:27:46;;;;;;;2.38;1.20;;;;;;;20.25;69.56;101435.31;4974049;28;99582;-26
2023/07/19 07:30:11;;;;;;;3.45;1.10;;;;;;;20.34;69.17;101452.88;4974352;28;96512;-27
2023/07/19 07:32:37;;;;;;;5.93;1.38;;;;;;;20.36;68.97;101439.84;4974694;28;96747;-26
2023/07/19 07:35:03;;;;;;;10.23;1.85;;;;;;;20.48;68.39;101443.31;4973680;28;98899;-26
2023/07/19 07:37:28;;;;;;;1.60;1.05;;;;;;;20.63;68.48;101441.91;4973868;28;100523;-26
2023/07/19 07:39:54;;;;;;;2.88;1.23;;;;;;;20.62;67.46;101440.19;4976544;28;96717;-27
2023/07/19 07:42:20;;;;;;;3.40;1.42;;;;;;;20.64;67.53;101446.41;4977271;28;96467;-27
2023/07/19 07:44:46;;;;;;;4.68;1.50;;;;;;;20.64;67.60;101440.00;4975127;28;100889;-27
2023/07/19 07:47:11;;;;;;;6.63;1.48;;;;;;;20.68;67.32;101444.22;4974869;28;97778;-26
2023/07/19 07:49:36;;;;;;;4.15;1.30;;;;;;;20.62;67.38;101442.94;4976479;28;96594;-27
2023/07/19 07:52:03;;;;;;;6.35;1.73;;;;;;;20.53;67.52;101436.38;4977420;28;96916;-27
2023/07/19 07:54:29;;;;;;;2.60;1.13;;;;;;;20.54;67.83;101443.59;4975690;28;101526;-27
2023/07/19 07:56:54;;;;;;;2.47;1.13;;;;;;;20.87;67.34;101443.34;4976107;28;98786;-27
2023/07/19 07:59:20;;;;;;;2.60;1.30;;;;;;;21.16;66.44;101444.13;4977639;28;96491;-27
2023/07/19 08:01:45;;;;;;;4.05;1.30;;;;;;;21.39;65.02;101443.78;4975455;28;97049;-29
2023/07/19 08:04:12;;;;;;;2.75;1.10;;;;;;;21.36;64.71;101436.69;4974035;28;99368;-28
2023/07/19 08:06:37;;;;;;;3.75;1.02;;;;;;;21.52;64.39;101433.31;4974367;28;99257;-31
2023/07/19 08:09:03;;;;;;;3.20;1.17;;;;;;;21.55;64.33;101430.25;4974580;28;96703;-32
2023/07/19 08:11:28;;;;;;;5.72;1.38;;;;;;;21.48;64.67;101422.75;4974769;28;96764;-27
2023/07/19 08:13:54;;;;;;;4.72;1.38;;;;;;;21.36;65.23;101433.06;4974296;28;99486;-27
2023/07/19 08:16:19;;;;;;;2.33;1.15;;;;;;;21.24;65.44;101429.63;4974958;28;97561;-27
2023/07/19 08:18:45;;;;;;;1.48;1.00;;;;;;;21.10;65.84;101424.59;4975666;28;97051;-27
2023/07/19 08:21:10;;;;;;;5.65;1.35;;;;;;;21.00;65.93;101430.13;4977500;28;96798;-27
2023/07/19 08:23:36;;;;;;;5.70;1.23;;;;;;;20.88;66.41;101425.78;4976790;28;97947;-27
2023/07/19 08:26:02;;;;;;;2.92;1.23;;;;;;;20.87;66.22;101432.31;4977110;28;97272;-27
2023/07/19 08:28:27;;;;;;;1.83;0.98;;;;;;;21.14;65.98;101435.16;4975147;28;96597;-27
2023/07/19 08:30:53;;;;;;;4.20;1.10;;;;;;;21.57;64.78;101435.59;4976744;28;96838;-28
2023/07/19 08:33:21;;;;;;;2.40;0.98;;;;;;;21.95;63.77;101425.38;4975184;28;100907;-27
2023/07/19 08:35:46;;;;;;;5.55;1.40;;;;;;;22.32;62.80;101435.50;4972468;28;101192;-31
2023/07/19 08:38:12;;;;;;;2.58;1.42;;;;;;;22.46;62.15;101415.63;4974169;28;96713;-30
2023/07/19 08:40:38;;;;;;;4.03;1.20;;;;;;;22.29;62.59;101419.25;4974370;28;96811;-27
2023/07/19 08:43:07;;;;;;;3.40;1.25;;;;;;;22.14;63.21;101421.63;4972609;28;101284;-28
2023/07/19 08:45:39;;;;;;;4.50;1.30;;;;;;;22.11;62.99;101428.34;4974715;28;97356;-31
2023/07/19 08:48:05;;;;;;;;;;;;;;;22.26;62.40;101424.06;4973188;28;96714;-27
2023/07/19 08:50:32;;;;;;;3.95;1.40;;;;;;;22.20;63.17;101432.06;4973799;28;96985;-27
2023/07/19 08:53:02;;;;;;;1.88;1.38;;;;;;;22.14;62.67;101428.03;4974488;28;100893;-27
2023/07/19 08:55:29;;;;;;;1.90;1.05;;;;;;;22.15;63.08;101438.06;4974781;28;101099;-27
2023/07/19 08:57:54;;;;;;;3.67;1.40;;;;;;;22.30;61.97;101424.59;4976563;28;96606;-27
2023/07/19 09:00:20;;;;;;;4.28;1.17;;;;;;;22.71;61.89;101419.44;4976592;28;96817;-28
2023/07/19 09:02:45;;;;;;;3.58;0.98;;;;;;;22.85;61.07;101418.88;4976060;28;98367;-26
2023/07/19 09:05:13;;;;;;;4.70;1.38;;;;;;;22.67;61.07;101429.09;4976016;28;97831;-27
2023/07/19 09:07:39;;;;;;;6.05;1.30;;;;;;;22.53;61.76;101427.78;4976366;28;96499;-27
2023/07/19 09:10:06;;;;;;;2.85;1.42;;;;;;;22.90;60.76;101415.63;4975323;28;96938;-27
2023/07/19 09:12:36;;;;;;;1.83;1.30;;;;;;;23.30;59.65;101437.19;4974385;28;102558;-27
2023/07/19 09:15:01;;;;;;;3.85;1.30;;;;;;;23.15;59.46;101424.16;4974374;28;101019;-27
2023/07/19 09:17:30;;;;;;;3.08;1.23;;;;;;;22.97;59.92;101429.69;4975614;28;96490;-27
2023/07/19 09:19:55;;;;;;;2.03;0.93;;;;;;;22.80;60.06;101423.16;4976434;28;96865;-27
2023/07/19 09:22:20;;;;;;;2.70;1.10;;;;;;;22.63;60.44;101423.03;4975866;28;98007;-27
2023/07/19 09:25:01;;;;;;;2.03;1.13;;;;;;;22.43;60.88;101427.84;4975865;28;97270;-27
2023/07/19 09:27:27;;;;;;;2.83;1.08;;;;;;;22.71;60.70;101430.50;4976291;28;96633;-28
2023/07/19 09:29:52;;;;;;;2.85;1.23;;;;;;;22.76;60.29;101427.25;4975814;28;96887;-28
2023/07/19 09:32:17;;;;;;;4.00;1.20;;;;;;;22.68;60.36;101430.81;4975770;28;97330;-27
2023/07/19 09:34:44;;;;;;;3.38;1.40;;;;;;;22.60;60.29;101434.41;4975875;28;98806;-27
2023/07/19 09:37:10;;;;;;;3.80;1.17;;;;;;;22.53;61.08;101437.97;4975723;28;96894;-27
2023/07/19 09:39:36;;;;;;;5.97;1.33;;;;;;;22.35;60.87;101429.66;4974503;28;96810;-27
2023/07/19 09:42:03;;;;;;;2.22;1.15;;;;;;;22.22;61.33;101430.06;4975161;28;98156;-27
2023/07/19 09:44:29;;;;;;;2.22;1.08;;;;;;;22.06;61.49;101431.56;4973969;28;100529;-27
2023/07/19 09:46:54;;;;;;;2.88;1.30;;;;;;;21.96;61.64;101435.44;4974343;28;96600;-29
2023/07/19 09:49:20;;;;;;;5.00;1.10;;;;;;;21.86;61.36;101435.47;4975370;28;96875;-27
2023/07/19 09:51:47;;;;;;;3.45;1.27;;;;;;;21.76;61.76;101435.53;4975537;28;98003;-26
2023/07/19 09:54:14;;;;;;;3.33;1.20;;;;;;;21.63;62.27;101427.59;4973912;28;100738;-27
2023/07/19 09:56:41;;;;;;;4.78;1.63;;;;;;;21.61;62.61;101434.28;4974302;28;96577;-27
2023/07/19 09:59:17;;;;;;;3.42;1.20;;;;;;;21.51;62.76;101431.56;4974623;28;96910;-26
2023/07/19 10:01:43;;;;;;;7.57;1.48;;;;;;;21.51;63.18;101433.47;4972934;28;101540;-27
2023/07/19 10:04:25;;;;;;;3.20;1.10;;;;;;;21.49;62.90;101441.88;4975249;28;97820;-26
2023/07/19 10:07:14;;;;;;;4.93;1.63;;;;;;;21.54;63.44;101439.53;4973646;28;96581;-27
2023/07/19 10:09:45;;;;;;;2.70;1.13;;;;;;;21.52;63.29;101435.19;4974007;28;96914;-27
2023/07/19 10:12:16;;;;;;;2.75;1.20;;;;;;;21.53;63.29;101440.56;4974900;28;99513;-27
2023/07/19 10:15:00;;;;;;;1.67;0.95;;;;;;;21.55;63.62;101438.53;4973913;28;100767;-26
2023/07/19 10:17:26;;;;;;;2.88;1.45;;;;;;;21.53;63.70;101428.69;4974164;28;96674;-27
2023/07/19 10:20:12;;;;;;;2.92;1.10;;;;;;;21.68;63.51;101445.59;4973869;28;96658;-27
2023/07/19 10:22:57;;;;;;;2.70;1.15;;;;;;;21.69;63.23;101452.81;4973526;28;101239;-27
2023/07/19 10:25:35;;;;;;;3.65;1.20;;;;;;;21.59;63.40;101456.50;4973791;28;101156;-27
2023/07/19 10:28:07;;;;;;;3.63;1.23;;;;;;;21.47;63.41;101441.16;4973746;28;96796;-26
2023/07/19 10:30:46;;;;;;;3.30;1.35;;;;;;;21.53;63.07;101451.59;4975135;28;96862;-27
2023/07/19 10:33:13;;;;;;;5.22;1.23;;;;;;;21.53;62.83;101457.09;4974292;28;98149;-26
2023/07/19 10:35:40;;;;;;;4.70;1.23;;;;;;;21.44;63.01;101449.75;4974520;28;97319;-26
2023/07/19 10:38:39;;;;;;;2.83;1.13;;;;;;;21.40;63.04;101454.69;4975075;28;96538;-26
2023/07/19 10:41:10;;;;;;;6.28;1.23;;;;;;;21.32;63.02;101450.91;4972746;28;96896;-27
2023/07/19 10:43:37;;;;;;;3.72;1.23;;;;;;;21.35;63.64;101453.38;4974936;28;97984;-27
2023/07/19 10:46:04;;;;;;;2.13;1.10;;;;;;;21.33;63.15;101447.13;4973201;28;100996;-29
2023/07/19 10:48:35;;;;;;;1.52;0.90;;;;;;;21.39;63.18;101452.06;4973110;28;96754;-27
2023/07/19 10:51:07;;;;;;;2.88;1.02;;;;;;;21.44;63.21;101459.91;4974977;28;96939;-26
2023/07/19 10:53:47;;;;;;;3.53;1.27;;;;;;;21.47;63.01;101457.69;4974592;28;99486;-26
2023/07/19 10:56:15;;;;;;;2.60;1.10;;;;;;;21.48;63.06;101451.19;4973149;28;100937;-27
2023/07/19 10:58:40;;;;;;;2.25;1.17;;;;;;;21.74;62.78;101445.00;4973054;28;96710;-27
2023/07/19 11:01:06;;;;;;;1.85;0.93;;;;;;;21.88;61.99;101444.47;4974835;28;96749;-26
2023/07/19 11:03:32;;;;;;;3.25;1.05;;;;;;;22.12;61.99;101449.41;4974077;28;98816;-28
2023/07/19 11:05:58;;;;;;;5.50;0.90;;;;;;;22.31;61.43;101464.09;4974309;28;99339;-26
2023/07/19 11:08:26;;;;;;;2.90;1.27;;;;;;;22.54;60.54;101465.38;4974822;28;96538;-27
2023/07/19 11:10:54;;;;;;;2.13;1.00;;;;;;;22.84;61.54;101458.59;4973297;28;96899;-27
2023/07/19 11:13:22;;;;;;;3.22;1.23;;;;;;;23.24;60.02;101454.44;4976189;28;97715;-29
2023/07/19 11:15:49;;;;;;;3.55;1.27;;;;;;;23.18;59.34;101457.84;4976917;28;100787;-27
2023/07/19 11:18:37;;;;;;;1.45;0.90;;;;;;;23.13;58.98;101457.47;4976745;28;96632;-27
2023/07/19 11:21:04;;;;;;;1.55;0.98;;;;;;;23.07;58.90;101453.47;4976611;28;96954;-26